Time;durP1;ratioP1;P1;durP2;ratioP2;P2;SDS_P1;SDS_P2;PMS_P1;PMS_P2;Temp;Humidity;BMP_temperature;BMP_pressure;BME280_temperature;BME280_humidity;BME280_pressure;Samples;Min_cycle;Max_cycle;Signal;HPM_P1;HPM_P2
2021/03/23 00:00:54;;;;;;;15.07;13.63;;;;;21.30;101425.00;;;;2074813;28;20237;-45
2021/03/23 00:01:54;;;;;;;14.50;13.05;;;;;21.30;101435.00;;;;2073501;28;20241;-45
2021/03/23 00:02:57;;;;;;;14.97;13.47;;;;;21.30;101431.00;;;;2070680;28;20305;-44
2021/03/23 00:03:57;;;;;;;13.50;12.15;;;;;21.20;101426.00;;;;2070552;28;20743;-45
2021/03/23 00:04:58;;;;;;;13.60;12.33;;;;;21.20;101421.00;;;;2069982;28;20257;-45
2021/03/23 00:05:58;;;;;;;13.77;12.50;;;;;21.20;101424.00;;;;2070479;28;20234;-45
2021/03/23 00:06:59;;;;;;;13.83;12.13;;;;;21.20;101430.00;;;;2070693;28;20234;-45
2021/03/23 00:07:59;;;;;;;13.50;12.20;;;;;21.20;101420.00;;;;2077053;28;20479;-51
2021/03/23 00:09:01;;;;;;;13.50;12.13;;;;;21.20;101419.00;;;;2069256;28;20226;-48
2021/03/23 00:10:01;;;;;;;13.13;11.82;;;;;21.20;101420.00;;;;2068474;28;20215;-46
2021/03/23 00:11:06;;;;;;;13.47;12.27;;;;;21.20;101414.00;;;;2073363;28;20214;-46
2021/03/23 00:12:06;;;;;;;12.57;11.38;;;;;21.20;101419.00;;;;2069507;28;20214;-45
2021/03/23 00:13:07;;;;;;;13.10;11.87;;;;;21.20;101427.00;;;;2071231;28;21006;-45
2021/03/23 00:14:10;;;;;;;12.47;11.30;;;;;21.20;101418.00;;;;2073234;28;20286;-45
2021/03/23 00:15:11;;;;;;;12.63;11.43;;;;;21.20;101419.00;;;;2072722;28;20211;-44
2021/03/23 00:16:12;;;;;;;12.67;11.57;;;;;21.20;101416.00;;;;2075215;28;20214;-45
2021/03/23 00:17:12;;;;;;;11.90;10.80;;;;;21.20;101432.00;;;;2070208;28;20956;-45
2021/03/23 00:18:13;;;;;;;12.13;10.93;;;;;21.20;101442.00;;;;2078128;28;20312;-45
2021/03/23 00:19:14;;;;;;;12.30;11.10;;;;;21.20;101423.00;;;;2068478;28;20707;-45
2021/03/23 00:20:17;;;;;;;11.90;10.90;;;;;21.20;101416.00;;;;2070277;28;20469;-45
2021/03/23 00:21:18;;;;;;;11.68;10.57;;;;;21.20;101422.00;;;;2074081;28;20683;-46
2021/03/23 00:22:18;;;;;;;11.73;10.60;;;;;21.20;101430.00;;;;2071661;28;20211;-44
2021/03/23 00:23:18;;;;;;;10.70;9.70;;;;;21.20;101426.00;;;;2070805;28;20214;-45
2021/03/23 00:24:19;;;;;;;11.90;10.70;;;;;21.20;101417.00;;;;2071739;28;20194;-45
2021/03/23 00:25:19;;;;;;;11.40;10.30;;;;;21.20;101414.00;;;;2077725;28;20300;-45
2021/03/23 00:26:20;;;;;;;11.00;9.90;;;;;21.10;101424.00;;;;2075967;28;20289;-45
2021/03/23 00:27:20;;;;;;;11.77;10.67;;;;;21.10;101421.00;;;;2072701;28;20210;-45
2021/03/23 00:28:23;;;;;;;10.57;9.63;;;;;21.10;101415.00;;;;2079064;28;20210;-45
2021/03/23 00:29:24;;;;;;;11.05;9.95;;;;;21.10;101414.00;;;;2074909;28;20217;-45
2021/03/23 00:30:24;;;;;;;10.33;9.40;;;;;21.10;101416.00;;;;2071727;28;20790;-45
2021/03/23 00:43:04;;;;;;;10.52;8.43;;;;;21.10;101424.00;;;;2074687;28;20309;-45
2021/03/23 00:44:06;;;;;;;8.52;7.72;;;;;21.10;101427.00;;;;2072448;28;20221;-45
2021/03/23 00:45:06;;;;;;;9.25;8.35;;;;;21.10;101421.00;;;;2071438;28;20710;-48
2021/03/23 00:46:07;;;;;;;9.00;7.77;;;;;21.10;101421.00;;;;2057674;28;20267;-46
2021/03/23 00:47:07;;;;;;;9.53;7.60;;;;;21.00;101420.00;;;;2067029;28;20214;-45
2021/03/23 00:48:09;;;;;;;8.70;7.77;;;;;21.10;101419.00;;;;2078348;28;20210;-45
2021/03/23 00:49:09;;;;;;;8.55;7.75;;;;;21.10;101424.00;;;;2076116;28;20279;-45
2021/03/23 00:50:10;;;;;;;8.73;7.57;;;;;21.00;101420.00;;;;2072539;28;20218;-45
2021/03/23 00:51:10;;;;;;;9.20;8.20;;;;;21.00;101422.00;;;;2069307;28;20584;-45
2021/03/23 00:52:10;;;;;;;9.23;8.27;;;;;21.00;101428.00;;;;2066318;28;20219;-45
2021/03/23 00:53:11;;;;;;;8.50;7.70;;;;;21.00;101425.00;;;;2072698;28;20218;-45
2021/03/23 00:54:11;;;;;;;7.93;7.23;;;;;21.00;101421.00;;;;2069810;28;21096;-45
2021/03/23 00:55:11;;;;;;;7.80;7.00;;;;;21.00;101421.00;;;;2074769;28;20218;-45
2021/03/23 00:56:12;;;;;;;7.50;6.80;;;;;21.00;101414.00;;;;2075609;28;20260;-46
2021/03/23 00:57:12;;;;;;;7.90;7.20;;;;;21.00;101416.00;;;;2073485;28;20570;-44
2021/03/23 00:58:13;;;;;;;7.13;6.43;;;;;21.00;101417.00;;;;2078788;28;20222;-46
2021/03/23 00:59:13;;;;;;;6.60;5.90;;;;;21.00;101418.00;;;;2075344;28;20222;-45
2021/03/23 01:00:15;;;;;;;8.07;7.37;;;;;21.00;101420.00;;;;2076663;28;20250;-45
2021/03/23 01:01:15;;;;;;;7.35;6.72;;;;;21.00;101423.00;;;;2076106;28;20222;-45
2021/03/23 01:02:15;;;;;;;7.10;6.40;;;;;21.00;101422.00;;;;2078834;28;20274;-46
2021/03/23 01:03:16;;;;;;;8.10;7.40;;;;;21.00;101421.00;;;;2073732;28;20241;-44
2021/03/23 01:04:16;;;;;;;7.57;6.87;;;;;21.00;101417.00;;;;2071136;28;20207;-45
2021/03/23 01:05:19;;;;;;;7.20;6.50;;;;;21.00;101422.00;;;;2074416;28;20210;-46
2021/03/23 01:06:19;;;;;;;7.47;6.78;;;;;21.00;101417.00;;;;2072244;28;20224;-45
2021/03/23 01:07:20;;;;;;;7.70;7.00;;;;;21.00;101417.00;;;;2072634;28;20231;-45
2021/03/23 01:08:20;;;;;;;7.60;6.87;;;;;21.00;101411.00;;;;2078933;28;20217;-45
2021/03/23 01:09:20;;;;;;;8.20;7.43;;;;;21.00;101415.00;;;;2076823;28;20214;-45
2021/03/23 01:10:22;;;;;;;8.13;7.43;;;;;21.00;101411.00;;;;2080234;28;20698;-45
2021/03/23 01:11:23;;;;;;;7.03;6.43;;;;;21.00;101415.00;;;;2073186;28;20222;-45
2021/03/23 01:12:23;;;;;;;7.77;6.93;;;;;21.00;101416.00;;;;2071695;28;20301;-45
2021/03/23 01:13:24;;;;;;;7.07;6.47;;;;;20.90;101412.00;;;;2080238;28;20253;-46
2021/03/23 01:14:24;;;;;;;7.40;6.80;;;;;21.00;101415.00;;;;2080211;28;20293;-45
2021/03/23 01:15:30;;;;;;;8.13;7.33;;;;;21.00;101413.00;;;;2074723;28;20580;-45
2021/03/23 01:16:30;;;;;;;15.15;7.32;;;;;21.00;101408.00;;;;2075120;28;20218;-44
2021/03/23 01:17:30;;;;;;;7.40;6.70;;;;;21.00;101418.00;;;;2076077;28;20230;-45
2021/03/23 01:18:31;;;;;;;7.30;6.70;;;;;21.00;101416.00;;;;2075681;28;24942;-45
2021/03/23 01:19:31;;;;;;;7.40;6.70;;;;;20.90;101419.00;;;;2075308;28;20279;-46
2021/03/23 01:20:32;;;;;;;7.77;6.97;;;;;20.90;101415.00;;;;2076453;28;20230;-45
2021/03/23 01:21:32;;;;;;;7.70;7.00;;;;;20.90;101417.00;;;;2074522;28;20218;-45
2021/03/23 01:22:33;;;;;;;7.10;6.50;;;;;20.90;101424.00;;;;2072116;28;20228;-45
2021/03/23 01:23:33;;;;;;;6.47;5.90;;;;;20.90;101419.00;;;;2076075;28;20751;-48
2021/03/23 01:24:34;;;;;;;7.30;6.60;;;;;20.90;101420.00;;;;2071412;28;20800;-45
2021/03/23 01:25:34;;;;;;;7.00;6.40;;;;;20.90;101412.00;;;;2075485;28;20253;-45
2021/03/23 01:26:35;;;;;;;9.73;7.07;;;;;20.90;101415.00;;;;2071795;28;20291;-48
2021/03/23 01:27:35;;;;;;;8.10;7.30;;;;;20.90;101410.00;;;;2076066;28;20210;-45
2021/03/23 01:28:35;;;;;;;6.73;6.07;;;;;20.90;101408.00;;;;2082469;28;20280;-45
2021/03/23 01:29:36;;;;;;;7.40;6.70;;;;;20.90;101418.00;;;;2076352;28;20210;-47
2021/03/23 01:30:36;;;;;;;7.17;6.50;;;;;20.90;101406.00;;;;2076450;28;20289;-44
2021/03/23 01:31:37;;;;;;;7.23;6.50;;;;;20.90;101413.00;;;;2075356;28;20210;-47
2021/03/23 01:32:37;;;;;;;6.60;6.00;;;;;20.90;101417.00;;;;2069774;28;20215;-44
2021/03/23 01:33:38;;;;;;;7.53;6.83;;;;;20.90;101419.00;;;;2079666;28;20214;-44
2021/03/23 01:34:38;;;;;;;7.87;7.00;;;;;20.90;101416.00;;;;2076257;28;20269;-43
2021/03/23 01:35:39;;;;;;;7.57;6.87;;;;;20.90;101414.00;;;;2079987;28;20210;-45
2021/03/23 01:36:39;;;;;;;7.23;6.53;;;;;20.90;101397.00;;;;2072964;28;20223;-44
2021/03/23 01:37:40;;;;;;;7.37;6.63;;;;;20.90;101421.00;;;;2075829;28;20687;-44
2021/03/23 01:38:40;;;;;;;6.87;6.27;;;;;20.90;101421.00;;;;2079855;28;20221;-45
2021/03/23 01:39:41;;;;;;;7.67;6.97;;;;;20.90;101413.00;;;;2078711;28;20222;-43
2021/03/23 01:40:41;;;;;;;7.47;6.77;;;;;20.90;101411.00;;;;2079710;28;20918;-45
2021/03/23 01:41:41;;;;;;;7.40;6.17;;;;;20.90;101422.00;;;;2073725;28;20222;-44
2021/03/23 01:42:46;;;;;;;6.27;5.77;;;;;20.90;101411.00;;;;2069241;28;20230;-45
2021/03/23 01:43:46;;;;;;;7.05;6.53;;;;;20.90;101413.00;;;;2071110;28;20223;-44
2021/03/23 01:45:07;;;;;;;6.60;6.10;;;;;20.90;101415.00;;;;2071200;28;20214;-43
2021/03/23 01:46:45;;;;;;;7.35;6.65;;;;;20.90;101422.00;;;;2075816;28;20237;-45
2021/03/23 01:47:45;;;;;;;7.53;6.93;;;;;20.80;101423.00;;;;2075669;28;20753;-45
2021/03/23 01:48:46;;;;;;;7.77;6.57;;;;;20.80;101416.00;;;;2071447;28;20273;-44
2021/03/23 01:49:46;;;;;;;6.67;6.07;;;;;20.80;101417.00;;;;2070490;28;20587;-44
2021/03/23 01:51:14;;;;;;;6.50;5.90;;;;;20.80;101413.00;;;;2075561;28;20662;-43
2021/03/23 01:52:17;;;;;;;7.43;6.72;;;;;20.80;101424.00;;;;2067907;28;20662;-45
2021/03/23 01:53:33;;;;;;;6.65;6.15;;;;;20.80;101413.00;;;;2073301;28;20305;-45
2021/03/23 01:54:35;;;;;;;6.30;5.70;;;;;20.80;101421.00;;;;2068872;28;20216;-45
2021/03/23 01:55:35;;;;;;;5.40;4.93;;;;;20.80;101425.00;;;;2069986;28;20226;-45
2021/03/23 01:56:36;;;;;;;6.50;6.00;;;;;20.80;101421.00;;;;2065302;28;20282;-44
2021/03/23 01:57:37;;;;;;;7.27;6.57;;;;;20.80;101420.00;;;;2064568;28;20231;-44
2021/03/23 01:58:39;;;;;;;6.27;5.67;;;;;20.80;101425.00;;;;2071864;28;20294;-45
2021/03/23 01:59:43;;;;;;;6.60;6.00;;;;;20.80;101414.00;;;;2066328;28;20227;-44
2021/03/23 02:00:47;;;;;;;6.88;6.28;;;;;20.80;101412.00;;;;2070348;28;20305;-43
2021/03/23 02:01:47;;;;;;;7.32;6.63;;;;;20.80;101422.00;;;;2057645;28;20224;-44
2021/03/23 02:02:47;;;;;;;6.83;6.23;;;;;20.80;101421.00;;;;2068246;28;20229;-43
2021/03/23 02:03:48;;;;;;;6.63;6.13;;;;;20.80;101423.00;;;;2075440;28;20741;-45
2021/03/23 02:04:48;;;;;;;6.80;6.20;;;;;20.80;101409.00;;;;2078668;28;20225;-44
2021/03/23 02:05:56;;;;;;;6.73;6.20;;;;;20.80;101421.00;;;;2079023;28;20218;-44
2021/03/23 02:06:56;;;;;;;7.15;6.55;;;;;20.70;101379.00;;;;2072332;28;20265;-45
2021/03/23 02:07:57;;;;;;;6.70;6.10;;;;;20.80;101411.00;;;;2071203;28;20272;-44
2021/03/23 02:08:57;;;;;;;6.00;5.50;;;;;20.80;101409.00;;;;2076309;28;20552;-44
2021/03/23 02:09:58;;;;;;;6.67;6.07;;;;;20.80;101412.00;;;;2070310;28;20456;-45
2021/03/23 02:10:59;;;;;;;6.60;6.00;;;;;20.80;101413.00;;;;2074940;28;20666;-44
2021/03/23 02:12:08;;;;;;;6.47;5.97;;;;;20.80;101413.00;;;;2064409;28;20270;-45
2021/03/23 02:13:08;;;;;;;6.72;6.13;;;;;20.80;101415.00;;;;2064652;28;20235;-44
2021/03/23 02:14:09;;;;;;;6.60;6.00;;;;;20.80;101417.00;;;;2070921;28;20239;-44
2021/03/23 02:15:09;;;;;;;6.57;5.97;;;;;20.70;101410.00;;;;2062549;28;20227;-44
2021/03/23 02:16:10;;;;;;;6.97;6.37;;;;;20.70;101414.00;;;;2066634;28;20225;-43
2021/03/23 02:17:32;;;;;;;6.57;5.93;;;;;20.80;101415.00;;;;2075428;28;20334;-46
2021/03/23 02:18:32;;;;;;;6.20;5.70;;;;;20.80;101420.00;;;;2075265;28;20214;-45
2021/03/23 02:19:32;;;;;;;6.40;5.80;;;;;20.70;101407.00;;;;2061514;28;20258;-44
2021/03/23 02:20:33;;;;;;;6.93;5.80;;;;;20.70;101411.00;;;;2062907;28;20226;-44
2021/03/23 02:21:34;;;;;;;6.37;5.87;;;;;20.70;101413.00;;;;2070932;28;20206;-45
2021/03/23 02:22:48;;;;;;;6.50;5.90;;;;;20.70;101406.00;;;;2070753;28;20238;-45
2021/03/23 02:23:52;;;;;;;5.50;5.10;;;;;20.70;101406.00;;;;2071601;28;20225;-44
2021/03/23 02:24:53;;;;;;;5.50;5.10;;;;;20.70;101405.00;;;;2074785;28;20218;-47
2021/03/23 02:25:53;;;;;;;5.90;5.50;;;;;20.70;101401.00;;;;2074544;28;20256;-46
2021/03/23 02:26:54;;;;;;;6.03;5.53;;;;;20.70;101402.00;;;;2074589;28;20637;-46
2021/03/23 02:27:54;;;;;;;5.70;5.20;;;;;20.70;101402.00;;;;2078455;28;20197;-45
2021/03/23 02:28:59;;;;;;;5.77;5.27;;;;;20.70;101399.00;;;;2074259;28;20262;-46
2021/03/23 02:29:59;;;;;;;6.35;5.85;;;;;20.70;101406.00;;;;2075437;28;20215;-45
2021/03/23 02:31:00;;;;;;;6.50;5.90;;;;;20.70;101404.00;;;;2074804;28;20217;-43
2021/03/23 02:32:00;;;;;;;6.43;5.93;;;;;20.70;101402.00;;;;2077128;28;20293;-43
2021/03/23 02:33:01;;;;;;;5.57;5.03;;;;;20.70;101406.00;;;;2079490;28;20206;-44
2021/03/23 02:34:03;;;;;;;6.17;5.63;;;;;20.70;101408.00;;;;2079600;28;20245;-45
2021/03/23 02:35:04;;;;;;;6.05;5.55;;;;;20.70;101405.00;;;;2079297;28;20305;-45
2021/03/23 02:36:04;;;;;;;5.60;5.20;;;;;20.70;101401.00;;;;2075055;28;20753;-44
2021/03/23 02:37:05;;;;;;;6.00;5.50;;;;;20.70;101407.00;;;;2070684;28;20219;-43
2021/03/23 02:38:05;;;;;;;6.20;5.70;;;;;20.70;101411.00;;;;2072405;28;20771;-44
2021/03/23 02:39:07;;;;;;;5.83;5.30;;;;;20.70;101403.00;;;;2078256;28;20220;-44
2021/03/23 02:40:07;;;;;;;5.30;4.90;;;;;20.70;101411.00;;;;2078778;28;20217;-44
2021/03/23 02:41:08;;;;;;;4.90;4.50;;;;;20.60;101401.00;;;;2071734;28;20214;-44
2021/03/23 02:42:08;;;;;;;5.53;5.03;;;;;20.60;101398.00;;;;2071274;28;20217;-44
2021/03/23 02:43:09;;;;;;;5.60;4.80;;;;;20.60;101406.00;;;;2079176;28;20214;-45
2021/03/23 02:44:09;;;;;;;5.20;4.70;;;;;20.70;101396.00;;;;2079568;28;20336;-45
2021/03/23 02:45:10;;;;;;;5.90;5.30;;;;;20.70;101404.00;;;;2079171;28;20464;-45
2021/03/23 02:46:11;;;;;;;6.90;5.30;;;;;20.60;101403.00;;;;2077102;28;20730;-45
2021/03/23 02:47:11;;;;;;;5.40;5.00;;;;;20.60;101405.00;;;;2077720;28;20332;-43
2021/03/23 02:48:12;;;;;;;5.87;5.37;;;;;20.70;101405.00;;;;2079364;28;20217;-45
2021/03/23 02:49:12;;;;;;;5.90;5.30;;;;;20.60;101405.00;;;;2077050;28;21480;-43
2021/03/23 02:50:13;;;;;;;5.60;5.10;;;;;20.60;101406.00;;;;2079472;28;20220;-43
2021/03/23 02:51:14;;;;;;;5.27;4.83;;;;;20.60;101405.00;;;;2079368;28;21044;-46
2021/03/23 02:52:14;;;;;;;5.38;4.88;;;;;20.60;101405.00;;;;2079137;28;20240;-44
2021/03/23 02:53:15;;;;;;;5.63;5.20;;;;;20.60;101406.00;;;;2078420;28;20210;-46
2021/03/23 02:54:15;;;;;;;5.27;4.87;;;;;20.60;101393.00;;;;2071624;28;20591;-44
2021/03/23 02:55:16;;;;;;;5.60;5.10;;;;;20.60;101397.00;;;;2078814;28;20221;-43
2021/03/23 02:56:16;;;;;;;6.73;5.43;;;;;20.60;101398.00;;;;2078629;28;20218;-44
2021/03/23 02:57:17;;;;;;;6.00;5.40;;;;;20.60;101406.00;;;;2077993;28;20222;-44
2021/03/23 02:58:17;;;;;;;5.70;5.20;;;;;20.60;101402.00;;;;2080013;28;20724;-46
2021/03/23 02:59:17;;;;;;;5.83;5.30;;;;;20.60;101395.00;;;;2071435;28;20246;-45
2021/03/23 03:00:18;;;;;;;5.87;5.37;;;;;20.60;101398.00;;;;2072166;28;20298;-44
2021/03/23 03:01:19;;;;;;;5.43;4.93;;;;;20.60;101398.00;;;;2070861;28;20749;-44
2021/03/23 03:02:19;;;;;;;5.40;5.00;;;;;20.60;101396.00;;;;2075501;28;20479;-45
2021/03/23 03:03:19;;;;;;;5.50;5.00;;;;;20.60;101402.00;;;;2079309;28;20218;-44
2021/03/23 03:04:20;;;;;;;6.27;5.67;;;;;20.60;101401.00;;;;2070633;28;20237;-43
2021/03/23 03:05:20;;;;;;;5.70;5.20;;;;;20.60;101402.00;;;;2064709;28;20214;-44
2021/03/23 03:06:21;;;;;;;5.10;4.70;;;;;20.60;101399.00;;;;2075046;28;20300;-44
2021/03/23 03:07:21;;;;;;;5.13;4.73;;;;;20.60;101408.00;;;;2071200;28;20242;-44
2021/03/23 03:08:21;;;;;;;5.40;4.90;;;;;20.60;101402.00;;;;2078599;28;20215;-45
2021/03/23 03:09:22;;;;;;;4.80;4.40;;;;;20.60;101396.00;;;;2078007;28;20743;-44
2021/03/23 03:10:22;;;;;;;5.77;5.27;;;;;20.60;101387.00;;;;2074213;28;20302;-44
2021/03/23 03:11:23;;;;;;;5.47;4.97;;;;;20.60;101395.00;;;;2076820;28;20218;-44
2021/03/23 03:12:23;;;;;;;5.83;5.33;;;;;20.60;101400.00;;;;2076800;28;20218;-43
2021/03/23 03:13:24;;;;;;;5.40;4.90;;;;;20.60;101390.00;;;;2072509;28;20218;-44
2021/03/23 03:14:24;;;;;;;5.80;5.23;;;;;20.60;101390.00;;;;2079165;28;20689;-44
2021/03/23 03:15:24;;;;;;;5.03;4.63;;;;;20.60;101388.00;;;;2078768;28;20444;-44
2021/03/23 03:16:25;;;;;;;5.63;5.13;;;;;20.60;101395.00;;;;2078525;28;20202;-43
2021/03/23 03:17:25;;;;;;;6.00;5.50;;;;;20.60;101389.00;;;;2078517;28;20217;-43
2021/03/23 03:18:26;;;;;;;4.80;4.40;;;;;20.60;101393.00;;;;2078138;28;20210;-45
2021/03/23 03:19:26;;;;;;;5.30;4.80;;;;;20.50;101398.00;;;;2070212;28;20219;-44
2021/03/23 03:20:27;;;;;;;5.70;5.20;;;;;20.60;101392.00;;;;2078508;28;20315;-44
2021/03/23 03:21:27;;;;;;;5.30;4.80;;;;;20.50;101396.00;;;;2071399;28;20310;-44
2021/03/23 03:22:28;;;;;;;4.70;4.30;;;;;20.50;101394.00;;;;2075559;28;20718;-44
2021/03/23 03:23:28;;;;;;;6.03;5.30;;;;;20.50;101398.00;;;;2078500;28;20564;-44
2021/03/23 03:24:28;;;;;;;5.27;4.77;;;;;20.50;101400.00;;;;2078636;28;20552;-45
2021/03/23 03:25:29;;;;;;;6.23;5.73;;;;;20.50;101397.00;;;;2079034;28;20711;-45
2021/03/23 03:26:29;;;;;;;5.30;4.90;;;;;20.50;101401.00;;;;2078562;28;20248;-43
2021/03/23 03:27:29;;;;;;;6.07;5.57;;;;;20.50;101384.00;;;;2076559;28;20259;-44
2021/03/23 03:28:30;;;;;;;6.33;5.00;;;;;20.50;101387.00;;;;2071679;28;20222;-44
2021/03/23 03:29:30;;;;;;;5.10;4.60;;;;;20.50;101391.00;;;;2075185;28;20217;-46
2021/03/23 03:30:31;;;;;;;5.37;4.97;;;;;20.50;101385.00;;;;2076384;28;20226;-45
2021/03/23 03:31:32;;;;;;;5.53;4.93;;;;;20.50;101389.00;;;;2070954;28;20687;-44
2021/03/23 03:32:32;;;;;;;5.33;4.83;;;;;20.50;101388.00;;;;2073261;28;20205;-50
2021/03/23 03:33:32;;;;;;;5.20;4.70;;;;;20.50;101383.00;;;;2078882;28;20213;-45
2021/03/23 03:34:33;;;;;;;5.60;5.10;;;;;20.50;101383.00;;;;2074829;28;20296;-46
2021/03/23 03:35:34;;;;;;;5.93;5.23;;;;;20.40;101377.00;;;;2078121;28;20221;-46
2021/03/23 03:36:36;;;;;;;5.40;4.85;;;;;20.50;101378.00;;;;2074106;28;20556;-45
2021/03/23 03:37:36;;;;;;;5.00;4.60;;;;;20.50;101373.00;;;;2076873;28;20257;-44
2021/03/23 03:38:36;;;;;;;5.10;4.67;;;;;20.50;101381.00;;;;2079204;28;20206;-45
2021/03/23 03:39:37;;;;;;;5.20;4.70;;;;;20.50;101374.00;;;;2077797;28;20233;-44
2021/03/23 03:40:45;;;;;;;4.97;4.57;;;;;20.50;101384.00;;;;2079009;28;20213;-44
2021/03/23 03:41:45;;;;;;;5.40;5.00;;;;;20.50;101382.00;;;;2078889;28;20276;-44
2021/03/23 03:42:46;;;;;;;4.90;4.50;;;;;20.50;101381.00;;;;2077647;28;20301;-44
2021/03/23 03:43:46;;;;;;;6.27;5.77;;;;;20.50;101374.00;;;;2078366;28;20224;-44
2021/03/23 03:44:47;;;;;;;5.10;4.70;;;;;20.50;101382.00;;;;2078817;28;20293;-46
2021/03/23 03:45:47;;;;;;;5.63;5.13;;;;;20.50;101382.00;;;;2070743;28;20214;-44
2021/03/23 03:46:47;;;;;;;5.53;5.07;;;;;20.50;101383.00;;;;2071827;28;20214;-44
2021/03/23 03:47:49;;;;;;;6.00;4.90;;;;;20.50;101384.00;;;;2077611;28;20263;-44
2021/03/23 03:48:50;;;;;;;5.30;4.72;;;;;20.50;101381.00;;;;2070922;28;20298;-44
2021/03/23 03:49:50;;;;;;;6.10;5.60;;;;;20.50;101377.00;;;;2069924;28;20222;-44
2021/03/23 03:50:51;;;;;;;5.70;5.20;;;;;20.50;101382.00;;;;2074258;28;20217;-44
2021/03/23 03:51:51;;;;;;;5.43;4.97;;;;;20.40;101377.00;;;;2077700;28;20226;-43
2021/03/23 03:52:51;;;;;;;5.87;5.37;;;;;20.50;101382.00;;;;2074004;28;20273;-44
2021/03/23 03:53:52;;;;;;;5.60;5.20;;;;;20.50;101377.00;;;;2076035;28;20250;-43
2021/03/23 03:54:52;;;;;;;5.70;5.00;;;;;20.40;101382.00;;;;2076922;28;20217;-44
2021/03/23 03:55:53;;;;;;;5.40;4.90;;;;;20.40;101378.00;;;;2071081;28;20242;-44
2021/03/23 03:56:53;;;;;;;5.57;5.07;;;;;20.50;101378.00;;;;2070671;28;20219;-46
2021/03/23 03:57:53;;;;;;;5.73;5.27;;;;;20.50;101378.00;;;;2072188;28;20214;-46
2021/03/23 03:58:56;;;;;;;5.50;5.07;;;;;20.40;101387.00;;;;2077328;28;20205;-46
2021/03/23 03:59:56;;;;;;;5.40;4.65;;;;;20.50;101379.00;;;;2078509;28;20275;-44
2021/03/23 04:00:56;;;;;;;6.10;5.50;;;;;20.40;101378.00;;;;2074796;28;20845;-45
2021/03/23 04:01:57;;;;;;;5.67;5.17;;;;;20.40;101388.00;;;;2078986;28;20218;-45
2021/03/23 04:02:57;;;;;;;6.10;5.60;;;;;20.40;101380.00;;;;2071564;28;20259;-44
2021/03/23 04:03:58;;;;;;;7.13;5.60;;;;;20.40;101376.00;;;;2073898;28;20678;-45
2021/03/23 04:04:58;;;;;;;5.40;4.97;;;;;20.40;101386.00;;;;2074932;28;20274;-45
2021/03/23 04:05:59;;;;;;;5.10;4.70;;;;;20.40;101379.00;;;;2073952;28;20261;-43
2021/03/23 04:06:59;;;;;;;6.00;5.03;;;;;20.40;101374.00;;;;2070618;28;20218;-47
2021/03/23 04:08:00;;;;;;;5.70;5.20;;;;;20.40;101372.00;;;;2073244;28;20218;-44
2021/03/23 04:09:01;;;;;;;5.55;5.05;;;;;20.40;101373.00;;;;2077586;28;20297;-43
2021/03/23 04:10:01;;;;;;;5.00;4.60;;;;;20.30;101385.00;;;;2075380;28;20698;-43
2021/03/23 04:11:03;;;;;;;5.40;4.90;;;;;20.40;101379.00;;;;2070861;28;20219;-45
2021/03/23 04:12:06;;;;;;;5.18;4.78;;;;;20.40;101377.00;;;;2078207;28;20264;-44
2021/03/23 04:13:06;;;;;;;5.68;5.18;;;;;20.40;101370.00;;;;2078086;28;20217;-44
2021/03/23 04:14:08;;;;;;;6.23;5.73;;;;;20.40;101373.00;;;;2078376;28;20245;-44
2021/03/23 04:15:08;;;;;;;5.40;4.90;;;;;20.40;101372.00;;;;2078048;28;20213;-46
2021/03/23 04:16:10;;;;;;;5.47;4.97;;;;;20.40;101373.00;;;;2078575;28;20260;-44
2021/03/23 04:17:10;;;;;;;6.00;5.28;;;;;20.40;101381.00;;;;2078933;28;20214;-44
2021/03/23 04:18:11;;;;;;;5.00;4.60;;;;;20.40;101381.00;;;;2073796;28;20218;-44
2021/03/23 04:19:11;;;;;;;5.72;5.22;;;;;20.40;101379.00;;;;2069673;28;20222;-48
2021/03/23 04:20:13;;;;;;;4.83;4.43;;;;;20.40;101379.00;;;;2070823;28;20222;-44
2021/03/23 04:21:13;;;;;;;5.53;5.10;;;;;20.40;101385.00;;;;2074364;28;20214;-45
2021/03/23 04:22:14;;;;;;;6.67;6.00;;;;;20.40;101380.00;;;;2070730;28;20695;-45
2021/03/23 04:23:37;;;;;;;5.47;5.07;;;;;20.40;101389.00;;;;2071542;28;20206;-44
2021/03/23 04:24:38;;;;;;;5.60;5.10;;;;;20.40;101380.00;;;;2078979;28;20206;-44
2021/03/23 04:25:38;;;;;;;5.03;4.63;;;;;20.40;101379.00;;;;2074301;28;20215;-44
2021/03/23 04:26:39;;;;;;;5.43;4.93;;;;;20.40;101383.00;;;;2072539;28;20608;-44
2021/03/23 04:27:39;;;;;;;5.53;5.03;;;;;20.40;101379.00;;;;2076506;28;20362;-44
2021/03/23 04:28:39;;;;;;;5.50;5.00;;;;;20.40;101381.00;;;;2075866;28;20225;-48
2021/03/23 04:29:40;;;;;;;6.10;5.50;;;;;20.40;101380.00;;;;2072743;28;20207;-46
2021/03/23 04:30:40;;;;;;;6.30;5.37;;;;;20.40;101380.00;;;;2078742;28;20324;-44
2021/03/23 04:31:43;;;;;;;5.27;4.87;;;;;20.40;101380.00;;;;2077874;28;21123;-44
2021/03/23 04:32:43;;;;;;;8.25;5.10;;;;;20.40;101377.00;;;;2070584;28;20206;-44
2021/03/23 04:33:44;;;;;;;5.37;4.97;;;;;20.40;101376.00;;;;2072167;28;20218;-43
2021/03/23 04:34:44;;;;;;;6.03;5.43;;;;;20.40;101369.00;;;;2078263;28;20332;-46
2021/03/23 04:35:47;;;;;;;6.53;4.87;;;;;20.40;101379.00;;;;2075270;28;20217;-44
2021/03/23 04:36:47;;;;;;;6.00;5.25;;;;;20.40;101376.00;;;;2075300;28;20625;-43
2021/03/23 04:37:48;;;;;;;4.67;4.27;;;;;20.40;101382.00;;;;2078803;28;20241;-44
2021/03/23 04:38:48;;;;;;;4.93;4.53;;;;;20.30;101378.00;;;;2073093;28;20218;-44
2021/03/23 04:39:48;;;;;;;5.33;4.67;;;;;20.30;101384.00;;;;2072229;28;20214;-45
2021/03/23 04:40:49;;;;;;;5.47;5.07;;;;;20.30;101377.00;;;;2071117;28;20317;-43
2021/03/23 04:41:49;;;;;;;5.40;5.00;;;;;20.30;101382.00;;;;2069650;28;20222;-45
2021/03/23 04:42:50;;;;;;;5.47;4.97;;;;;20.30;101377.00;;;;2078416;28;20226;-44
2021/03/23 04:43:50;;;;;;;5.60;5.10;;;;;20.30;101378.00;;;;2077781;28;20234;-45
2021/03/23 04:44:51;;;;;;;4.60;4.20;;;;;20.30;101384.00;;;;2076210;28;20893;-44
2021/03/23 04:45:51;;;;;;;4.50;4.10;;;;;20.30;101379.00;;;;2078466;28;20308;-45
2021/03/23 04:46:52;;;;;;;5.90;5.40;;;;;20.30;101382.00;;;;2078626;28;20226;-44
2021/03/23 04:47:52;;;;;;;7.50;5.77;;;;;20.30;101382.00;;;;2075602;28;20227;-44
2021/03/23 04:48:53;;;;;;;6.30;5.50;;;;;20.30;101382.00;;;;2070851;28;20305;-45
2021/03/23 04:49:53;;;;;;;5.00;4.60;;;;;20.30;101375.00;;;;2069414;28;20296;-44
2021/03/23 04:50:53;;;;;;;5.93;5.20;;;;;20.30;101370.00;;;;2071040;28;20234;-46
2021/03/23 04:51:54;;;;;;;5.30;4.80;;;;;20.30;101377.00;;;;2078168;28;20209;-44
2021/03/23 04:52:54;;;;;;;4.83;4.43;;;;;20.30;101380.00;;;;2071803;28;20218;-44
2021/03/23 04:54:07;;;;;;;5.20;4.80;;;;;20.30;101378.00;;;;2077398;28;20214;-46
2021/03/23 04:55:08;;;;;;;4.90;4.50;;;;;20.30;101388.00;;;;2077280;28;20278;-45
2021/03/23 04:56:25;;;;;;;5.10;4.70;;;;;20.30;101382.00;;;;2073723;28;20621;-46
2021/03/23 04:57:26;;;;;;;5.45;4.95;;;;;20.30;101386.00;;;;2074211;28;20445;-45
2021/03/23 04:58:26;;;;;;;5.13;4.73;;;;;20.30;101384.00;;;;2081655;28;20297;-45
2021/03/23 04:59:27;;;;;;;4.93;4.50;;;;;20.30;101381.00;;;;2072338;28;20294;-45
2021/03/23 05:00:27;;;;;;;5.00;4.60;;;;;20.30;101375.00;;;;2073003;28;20583;-45
2021/03/23 05:01:28;;;;;;;5.40;4.90;;;;;20.30;101373.00;;;;2070480;28;20203;-45
2021/03/23 05:02:28;;;;;;;5.50;5.03;;;;;20.30;101378.00;;;;2073981;28;20209;-45
2021/03/23 05:03:31;;;;;;;5.03;4.33;;;;;20.30;101388.00;;;;2074560;28;20626;-45
2021/03/23 05:04:31;;;;;;;5.20;4.70;;;;;20.30;101385.00;;;;2078496;28;20225;-44
2021/03/23 05:05:32;;;;;;;4.80;4.40;;;;;20.30;101381.00;;;;2075799;28;20237;-44
2021/03/23 05:06:32;;;;;;;5.30;4.80;;;;;20.30;101383.00;;;;2070599;28;20214;-44
2021/03/23 05:07:33;;;;;;;5.00;4.50;;;;;20.30;101382.00;;;;2070627;28;20206;-44
2021/03/23 05:08:34;;;;;;;4.67;4.27;;;;;20.30;101381.00;;;;2070482;28;20215;-45
2021/03/23 05:09:34;;;;;;;4.93;4.53;;;;;20.30;101384.00;;;;2068582;28;20244;-45
2021/03/23 05:10:34;;;;;;;4.80;4.40;;;;;20.30;101386.00;;;;2069758;28;20512;-45
2021/03/23 05:11:35;;;;;;;4.50;4.20;;;;;20.30;101384.00;;;;2070382;28;20226;-45
2021/03/23 05:12:35;;;;;;;5.17;4.67;;;;;20.30;101384.00;;;;2073176;28;20229;-45
2021/03/23 05:13:35;;;;;;;4.60;4.20;;;;;20.30;101393.00;;;;2074762;28;20236;-45
2021/03/23 05:14:36;;;;;;;5.60;5.00;;;;;20.30;101389.00;;;;2078674;28;20612;-45